sensor_id;sensor_type;location;lat;lon;timestamp;temperature;humidity
4908;DHT22;64375;51.540;7.364;2023-05-07T00:02:06;19.90;97.00
4908;DHT22;64375;51.540;7.364;2023-05-07T00:04:39;19.90;96.90
4908;DHT22;64375;51.540;7.364;2023-05-07T00:07:14;19.90;96.80
4908;DHT22;64375;51.540;7.364;2023-05-07T00:09:43;19.90;96.80
4908;DHT22;64375;51.540;7.364;2023-05-07T00:12:24;19.90;96.80
4908;DHT22;64375;51.540;7.364;2023-05-07T00:14:53;19.90;97.20
4908;DHT22;64375;51.540;7.364;2023-05-07T00:17:27;19.90;96.90
4908;DHT22;64375;51.540;7.364;2023-05-07T00:19:55;20.00;96.90
4908;DHT22;64375;51.540;7.364;2023-05-07T00:22:24;20.00;96.80
4908;DHT22;64375;51.540;7.364;2023-05-07T00:24:55;20.00;96.70
4908;DHT22;64375;51.540;7.364;2023-05-07T00:27:25;19.80;96.60
4908;DHT22;64375;51.540;7.364;2023-05-07T00:29:53;19.70;96.70
4908;DHT22;64375;51.540;7.364;2023-05-07T00:32:27;19.60;96.80
4908;DHT22;64375;51.540;7.364;2023-05-07T00:35:11;19.50;97.00
4908;DHT22;64375;51.540;7.364;2023-05-07T00:37:46;19.50;97.20
4908;DHT22;64375;51.540;7.364;2023-05-07T00:40:15;19.50;97.10
4908;DHT22;64375;51.540;7.364;2023-05-07T00:42:42;19.50;97.10
4908;DHT22;64375;51.540;7.364;2023-05-07T00:45:13;19.50;97.00
4908;DHT22;64375;51.540;7.364;2023-05-07T00:47:57;19.50;97.10
4908;DHT22;64375;51.540;7.364;2023-05-07T00:50:26;19.50;97.20
4908;DHT22;64375;51.540;7.364;2023-05-07T00:52:55;19.40;97.00
4908;DHT22;64375;51.540;7.364;2023-05-07T00:55:23;19.40;97.00
4908;DHT22;64375;51.540;7.364;2023-05-07T00:57:52;19.30;97.30
4908;DHT22;64375;51.540;7.364;2023-05-07T01:00:22;19.20;97.60
4908;DHT22;64375;51.540;7.364;2023-05-07T01:02:54;18.90;98.30
4908;DHT22;64375;51.540;7.364;2023-05-07T01:05:26;18.40;99.30
4908;DHT22;64375;51.540;7.364;2023-05-07T01:07:59;18.20;99.70
4908;DHT22;64375;51.540;7.364;2023-05-07T01:10:31;17.90;99.90
4908;DHT22;64375;51.540;7.364;2023-05-07T01:12:59;17.80;99.90
4908;DHT22;64375;51.540;7.364;2023-05-07T01:15:34;17.90;99.90
4908;DHT22;64375;51.540;7.364;2023-05-07T01:18:02;17.90;99.90
4908;DHT22;64375;51.540;7.364;2023-05-07T01:20:30;18.00;99.90
4908;DHT22;64375;51.540;7.364;2023-05-07T01:23:00;18.10;99.90
4908;DHT22;64375;51.540;7.364;2023-05-07T01:25:28;18.20;99.90
4908;DHT22;64375;51.540;7.364;2023-05-07T01:27:59;18.20;99.90
4908;DHT22;64375;51.540;7.364;2023-05-07T01:30:28;18.10;99.90
4908;DHT22;64375;51.540;7.364;2023-05-07T01:33:02;18.20;99.90
4908;DHT22;64375;51.540;7.364;2023-05-07T01:35:43;18.40;99.90
4908;DHT22;64375;51.540;7.364;2023-05-07T01:38:14;18.40;99.80
4908;DHT22;64375;51.540;7.364;2023-05-07T01:40:49;18.50;99.70
4908;DHT22;64375;51.540;7.364;2023-05-07T01:43:17;18.60;99.50
4908;DHT22;64375;51.540;7.364;2023-05-07T01:45:46;18.60;99.40
4908;DHT22;64375;51.540;7.364;2023-05-07T01:48:21;18.60;99.40
4908;DHT22;64375;51.540;7.364;2023-05-07T01:50:50;18.70;99.30
4908;DHT22;64375;51.540;7.364;2023-05-07T01:53:19;18.70;99.10
4908;DHT22;64375;51.540;7.364;2023-05-07T01:55:47;18.70;99.20
4908;DHT22;64375;51.540;7.364;2023-05-07T01:58:15;18.70;99.20
4908;DHT22;64375;51.540;7.364;2023-05-07T02:00:43;18.70;99.20
4908;DHT22;64375;51.540;7.364;2023-05-07T02:03:11;18.60;99.30
4908;DHT22;64375;51.540;7.364;2023-05-07T02:05:41;18.60;99.40
4908;DHT22;64375;51.540;7.364;2023-05-07T02:08:09;18.50;99.30
4908;DHT22;64375;51.540;7.364;2023-05-07T02:10:48;18.50;99.40
4908;DHT22;64375;51.540;7.364;2023-05-07T02:13:16;18.50;99.40
4908;DHT22;64375;51.540;7.364;2023-05-07T02:15:47;18.50;99.40
4908;DHT22;64375;51.540;7.364;2023-05-07T02:18:20;18.50;99.40
4908;DHT22;64375;51.540;7.364;2023-05-07T02:20:54;18.50;99.40
4908;DHT22;64375;51.540;7.364;2023-05-07T02:23:22;18.60;99.40
4908;DHT22;64375;51.540;7.364;2023-05-07T02:25:54;18.50;99.40
4908;DHT22;64375;51.540;7.364;2023-05-07T02:28:25;18.50;99.40
4908;DHT22;64375;51.540;7.364;2023-05-07T02:30:59;18.50;99.40
4908;DHT22;64375;51.540;7.364;2023-05-07T02:33:30;18.50;99.30
4908;DHT22;64375;51.540;7.364;2023-05-07T02:36:05;18.60;99.20
4908;DHT22;64375;51.540;7.364;2023-05-07T02:38:36;18.50;99.10
4908;DHT22;64375;51.540;7.364;2023-05-07T02:41:07;18.50;99.10
4908;DHT22;64375;51.540;7.364;2023-05-07T02:43:38;18.50;99.20
4908;DHT22;64375;51.540;7.364;2023-05-07T02:46:07;18.50;99.10
4908;DHT22;64375;51.540;7.364;2023-05-07T02:48:41;18.50;99.00
4908;DHT22;64375;51.540;7.364;2023-05-07T02:51:23;18.50;99.10
4908;DHT22;64375;51.540;7.364;2023-05-07T02:53:52;18.40;99.10
4908;DHT22;64375;51.540;7.364;2023-05-07T02:56:27;18.50;99.10
4908;DHT22;64375;51.540;7.364;2023-05-07T02:58:55;18.50;98.90
4908;DHT22;64375;51.540;7.364;2023-05-07T03:01:26;18.50;98.90
4908;DHT22;64375;51.540;7.364;2023-05-07T03:03:54;18.40;99.00
4908;DHT22;64375;51.540;7.364;2023-05-07T03:06:25;18.40;99.10
4908;DHT22;64375;51.540;7.364;2023-05-07T03:08:53;18.40;99.00
4908;DHT22;64375;51.540;7.364;2023-05-07T03:11:30;18.40;98.90
4908;DHT22;64375;51.540;7.364;2023-05-07T03:13:57;18.40;98.80
4908;DHT22;64375;51.540;7.364;2023-05-07T03:16:25;18.40;98.70
4908;DHT22;64375;51.540;7.364;2023-05-07T03:18:53;18.40;98.80
4908;DHT22;64375;51.540;7.364;2023-05-07T03:21:21;18.40;99.00
4908;DHT22;64375;51.540;7.364;2023-05-07T03:23:49;18.30;99.30
4908;DHT22;64375;51.540;7.364;2023-05-07T03:26:17;18.20;99.30
4908;DHT22;64375;51.540;7.364;2023-05-07T03:28:46;18.00;99.70
4908;DHT22;64375;51.540;7.364;2023-05-07T03:31:17;17.90;99.90
4908;DHT22;64375;51.540;7.364;2023-05-07T03:33:52;17.80;99.90
4908;DHT22;64375;51.540;7.364;2023-05-07T03:36:20;17.80;99.90
4908;DHT22;64375;51.540;7.364;2023-05-07T03:38:56;17.80;99.90
4908;DHT22;64375;51.540;7.364;2023-05-07T03:41:30;17.80;99.90
4908;DHT22;64375;51.540;7.364;2023-05-07T03:43:59;17.90;99.90
4908;DHT22;64375;51.540;7.364;2023-05-07T03:46:27;18.00;99.80
4908;DHT22;64375;51.540;7.364;2023-05-07T03:48:59;18.00;99.90
4908;DHT22;64375;51.540;7.364;2023-05-07T03:51:30;18.00;99.70
4908;DHT22;64375;51.540;7.364;2023-05-07T03:54:01;18.10;99.50
4908;DHT22;64375;51.540;7.364;2023-05-07T03:56:38;18.10;99.50
4908;DHT22;64375;51.540;7.364;2023-05-07T03:59:11;18.00;99.70
4908;DHT22;64375;51.540;7.364;2023-05-07T04:01:39;17.90;99.90
4908;DHT22;64375;51.540;7.364;2023-05-07T04:04:07;17.90;99.90
4908;DHT22;64375;51.540;7.364;2023-05-07T04:06:38;17.90;99.90
4908;DHT22;64375;51.540;7.364;2023-05-07T04:09:06;17.80;99.90
4908;DHT22;64375;51.540;7.364;2023-05-07T04:11:35;17.80;99.90
4908;DHT22;64375;51.540;7.364;2023-05-07T04:14:03;17.80;99.90
4908;DHT22;64375;51.540;7.364;2023-05-07T04:16:32;17.80;99.90
4908;DHT22;64375;51.540;7.364;2023-05-07T04:19:02;17.80;99.90
4908;DHT22;64375;51.540;7.364;2023-05-07T04:21:35;18.00;99.80
4908;DHT22;64375;51.540;7.364;2023-05-07T04:24:07;18.10;99.40
4908;DHT22;64375;51.540;7.364;2023-05-07T04:26:38;18.00;99.30
4908;DHT22;64375;51.540;7.364;2023-05-07T04:29:19;18.10;99.50
4908;DHT22;64375;51.540;7.364;2023-05-07T04:31:49;18.10;99.40
4908;DHT22;64375;51.540;7.364;2023-05-07T04:34:16;18.10;99.40
4908;DHT22;64375;51.540;7.364;2023-05-07T04:36:44;18.00;99.60
4908;DHT22;64375;51.540;7.364;2023-05-07T04:39:15;18.00;99.70
4908;DHT22;64375;51.540;7.364;2023-05-07T04:41:52;18.20;99.70
4908;DHT22;64375;51.540;7.364;2023-05-07T04:44:23;18.20;99.50
4908;DHT22;64375;51.540;7.364;2023-05-07T04:46:53;18.10;99.60
4908;DHT22;64375;51.540;7.364;2023-05-07T04:49:29;18.10;99.90
4908;DHT22;64375;51.540;7.364;2023-05-07T04:51:57;18.20;99.80
4908;DHT22;64375;51.540;7.364;2023-05-07T04:54:28;18.10;99.90
4908;DHT22;64375;51.540;7.364;2023-05-07T04:56:59;18.00;99.90
4908;DHT22;64375;51.540;7.364;2023-05-07T04:59:27;18.10;99.90
4908;DHT22;64375;51.540;7.364;2023-05-07T05:01:58;18.10;99.90
4908;DHT22;64375;51.540;7.364;2023-05-07T05:04:32;18.10;99.90
4908;DHT22;64375;51.540;7.364;2023-05-07T05:07:03;18.10;99.90
4908;DHT22;64375;51.540;7.364;2023-05-07T05:09:31;17.90;99.90
4908;DHT22;64375;51.540;7.364;2023-05-07T05:11:59;17.70;99.90
4908;DHT22;64375;51.540;7.364;2023-05-07T05:14:27;17.60;99.90
4908;DHT22;64375;51.540;7.364;2023-05-07T05:17:00;17.50;99.90
4908;DHT22;64375;51.540;7.364;2023-05-07T05:19:34;17.40;99.90
4908;DHT22;64375;51.540;7.364;2023-05-07T05:22:02;17.50;99.90
4908;DHT22;64375;51.540;7.364;2023-05-07T05:24:30;17.50;99.90
4908;DHT22;64375;51.540;7.364;2023-05-07T05:26:58;17.50;99.90
4908;DHT22;64375;51.540;7.364;2023-05-07T05:29:27;17.80;99.90
4908;DHT22;64375;51.540;7.364;2023-05-07T05:31:56;17.90;99.90
4908;DHT22;64375;51.540;7.364;2023-05-07T05:34:26;17.40;99.90
4908;DHT22;64375;51.540;7.364;2023-05-07T05:36:54;17.30;99.90
4908;DHT22;64375;51.540;7.364;2023-05-07T05:39:31;17.60;99.90
4908;DHT22;64375;51.540;7.364;2023-05-07T05:41:59;17.70;99.90
4908;DHT22;64375;51.540;7.364;2023-05-07T05:44:33;17.50;99.90
4908;DHT22;64375;51.540;7.364;2023-05-07T05:47:04;17.50;99.90
4908;DHT22;64375;51.540;7.364;2023-05-07T05:49:35;17.50;99.90
4908;DHT22;64375;51.540;7.364;2023-05-07T05:52:04;17.30;99.90
4908;DHT22;64375;51.540;7.364;2023-05-07T05:54:31;17.20;99.90
4908;DHT22;64375;51.540;7.364;2023-05-07T05:56:59;17.20;99.90
4908;DHT22;64375;51.540;7.364;2023-05-07T05:59:30;17.40;99.90
4908;DHT22;64375;51.540;7.364;2023-05-07T06:01:58;17.60;99.90
4908;DHT22;64375;51.540;7.364;2023-05-07T06:04:26;17.50;99.90
4908;DHT22;64375;51.540;7.364;2023-05-07T06:07:01;17.60;99.90
4908;DHT22;64375;51.540;7.364;2023-05-07T06:09:29;17.60;99.90
4908;DHT22;64375;51.540;7.364;2023-05-07T06:12:00;17.80;99.90
4908;DHT22;64375;51.540;7.364;2023-05-07T06:14:28;17.80;99.90
4908;DHT22;64375;51.540;7.364;2023-05-07T06:17:05;17.90;99.90
4908;DHT22;64375;51.540;7.364;2023-05-07T06:19:39;18.10;99.90
4908;DHT22;64375;51.540;7.364;2023-05-07T06:22:08;18.10;99.90
4908;DHT22;64375;51.540;7.364;2023-05-07T06:24:39;18.20;99.90
4908;DHT22;64375;51.540;7.364;2023-05-07T06:27:07;18.00;99.90
4908;DHT22;64375;51.540;7.364;2023-05-07T06:29:41;18.10;99.90
4908;DHT22;64375;51.540;7.364;2023-05-07T06:32:10;17.90;99.90
4908;DHT22;64375;51.540;7.364;2023-05-07T06:34:44;17.90;99.90
4908;DHT22;64375;51.540;7.364;2023-05-07T06:37:14;18.00;99.90
4908;DHT22;64375;51.540;7.364;2023-05-07T06:39:44;18.00;99.90
4908;DHT22;64375;51.540;7.364;2023-05-07T06:42:15;18.10;99.90
4908;DHT22;64375;51.540;7.364;2023-05-07T06:44:45;18.20;99.90
4908;DHT22;64375;51.540;7.364;2023-05-07T06:47:16;18.10;99.90
4908;DHT22;64375;51.540;7.364;2023-05-07T06:49:44;18.00;99.90
4908;DHT22;64375;51.540;7.364;2023-05-07T06:52:21;17.80;99.90
4908;DHT22;64375;51.540;7.364;2023-05-07T06:54:51;17.70;99.90
4908;DHT22;64375;51.540;7.364;2023-05-07T06:57:19;17.70;99.90
4908;DHT22;64375;51.540;7.364;2023-05-07T06:59:50;17.70;99.90
4908;DHT22;64375;51.540;7.364;2023-05-07T07:02:18;17.70;99.90
4908;DHT22;64375;51.540;7.364;2023-05-07T07:04:46;17.60;99.90
4908;DHT22;64375;51.540;7.364;2023-05-07T07:07:17;17.60;99.90
4908;DHT22;64375;51.540;7.364;2023-05-07T07:09:45;17.50;99.90
4908;DHT22;64375;51.540;7.364;2023-05-07T07:12:13;17.40;99.90
4908;DHT22;64375;51.540;7.364;2023-05-07T07:14:41;17.30;99.90
4908;DHT22;64375;51.540;7.364;2023-05-07T07:17:21;17.30;99.90
4908;DHT22;64375;51.540;7.364;2023-05-07T07:19:49;17.00;99.90
4908;DHT22;64375;51.540;7.364;2023-05-07T07:22:27;16.90;99.90
4908;DHT22;64375;51.540;7.364;2023-05-07T07:24:55;16.70;99.90
4908;DHT22;64375;51.540;7.364;2023-05-07T07:27:22;16.60;99.90
4908;DHT22;64375;51.540;7.364;2023-05-07T07:29:51;16.60;99.90
4908;DHT22;64375;51.540;7.364;2023-05-07T07:32:19;16.60;99.90
4908;DHT22;64375;51.540;7.364;2023-05-07T07:34:47;16.60;99.90
4908;DHT22;64375;51.540;7.364;2023-05-07T07:37:15;16.70;99.90
4908;DHT22;64375;51.540;7.364;2023-05-07T07:39:44;16.90;99.90
4908;DHT22;64375;51.540;7.364;2023-05-07T07:42:15;16.90;99.90
4908;DHT22;64375;51.540;7.364;2023-05-07T07:44:45;17.00;99.90
4908;DHT22;64375;51.540;7.364;2023-05-07T07:47:13;16.90;99.90
4908;DHT22;64375;51.540;7.364;2023-05-07T07:49:43;16.80;99.90
4908;DHT22;64375;51.540;7.364;2023-05-07T07:52:14;16.70;99.90
4908;DHT22;64375;51.540;7.364;2023-05-07T07:54:45;16.80;99.90
4908;DHT22;64375;51.540;7.364;2023-05-07T07:57:13;16.70;99.90
4908;DHT22;64375;51.540;7.364;2023-05-07T07:59:41;16.70;99.90
4908;DHT22;64375;51.540;7.364;2023-05-07T08:02:10;16.80;99.90
4908;DHT22;64375;51.540;7.364;2023-05-07T08:04:38;17.00;99.90
4908;DHT22;64375;51.540;7.364;2023-05-07T08:07:06;16.90;99.90
4908;DHT22;64375;51.540;7.364;2023-05-07T08:09:34;16.90;99.90
4908;DHT22;64375;51.540;7.364;2023-05-07T08:12:06;16.90;99.90
4908;DHT22;64375;51.540;7.364;2023-05-07T08:14:34;16.90;99.90
4908;DHT22;64375;51.540;7.364;2023-05-07T08:17:06;16.90;99.90
4908;DHT22;64375;51.540;7.364;2023-05-07T08:19:36;17.10;99.90
4908;DHT22;64375;51.540;7.364;2023-05-07T08:22:07;17.00;99.90
4908;DHT22;64375;51.540;7.364;2023-05-07T08:24:35;17.00;99.90
4908;DHT22;64375;51.540;7.364;2023-05-07T08:27:03;16.90;99.90
4908;DHT22;64375;51.540;7.364;2023-05-07T08:29:32;16.80;99.90
4908;DHT22;64375;51.540;7.364;2023-05-07T08:32:03;17.00;99.90
4908;DHT22;64375;51.540;7.364;2023-05-07T08:34:33;17.10;99.90
4908;DHT22;64375;51.540;7.364;2023-05-07T08:37:01;17.10;99.90
4908;DHT22;64375;51.540;7.364;2023-05-07T08:39:30;17.10;99.90
4908;DHT22;64375;51.540;7.364;2023-05-07T08:42:00;17.00;99.90
4908;DHT22;64375;51.540;7.364;2023-05-07T08:44:33;17.10;99.90
4908;DHT22;64375;51.540;7.364;2023-05-07T08:47:08;17.00;99.90
4908;DHT22;64375;51.540;7.364;2023-05-07T08:49:37;17.00;99.90
4908;DHT22;64375;51.540;7.364;2023-05-07T08:52:12;16.90;99.90
4908;DHT22;64375;51.540;7.364;2023-05-07T08:54:40;16.90;99.90
4908;DHT22;64375;51.540;7.364;2023-05-07T08:57:11;16.90;99.90
4908;DHT22;64375;51.540;7.364;2023-05-07T08:59:40;16.90;99.90
4908;DHT22;64375;51.540;7.364;2023-05-07T09:02:10;16.90;99.90
4908;DHT22;64375;51.540;7.364;2023-05-07T09:04:38;16.90;99.90
4908;DHT22;64375;51.540;7.364;2023-05-07T09:07:08;17.00;99.90
4908;DHT22;64375;51.540;7.364;2023-05-07T09:09:37;17.10;99.90
4908;DHT22;64375;51.540;7.364;2023-05-07T09:12:05;17.20;99.90
4908;DHT22;64375;51.540;7.364;2023-05-07T09:14:33;17.20;99.90
4908;DHT22;64375;51.540;7.364;2023-05-07T09:17:02;17.20;99.90
4908;DHT22;64375;51.540;7.364;2023-05-07T09:19:30;17.20;99.90
4908;DHT22;64375;51.540;7.364;2023-05-07T09:21:59;17.20;99.90
4908;DHT22;64375;51.540;7.364;2023-05-07T09:24:27;17.30;99.90
4908;DHT22;64375;51.540;7.364;2023-05-07T09:26:58;17.30;99.90
4908;DHT22;64375;51.540;7.364;2023-05-07T09:29:27;17.40;99.90
4908;DHT22;64375;51.540;7.364;2023-05-07T09:31:56;17.50;99.90
4908;DHT22;64375;51.540;7.364;2023-05-07T09:34:29;17.50;99.90
4908;DHT22;64375;51.540;7.364;2023-05-07T09:36:58;17.60;99.90
4908;DHT22;64375;51.540;7.364;2023-05-07T09:39:26;17.60;99.90
4908;DHT22;64375;51.540;7.364;2023-05-07T09:42:23;17.60;99.90
4908;DHT22;64375;51.540;7.364;2023-05-07T09:44:52;17.70;99.90
4908;DHT22;64375;51.540;7.364;2023-05-07T09:47:24;17.70;99.90
4908;DHT22;64375;51.540;7.364;2023-05-07T09:49:56;17.80;99.90
4908;DHT22;64375;51.540;7.364;2023-05-07T09:52:26;17.80;99.90
4908;DHT22;64375;51.540;7.364;2023-05-07T09:55:00;17.80;99.90
4908;DHT22;64375;51.540;7.364;2023-05-07T09:57:29;17.90;99.90
4908;DHT22;64375;51.540;7.364;2023-05-07T09:59:58;18.00;99.90
4908;DHT22;64375;51.540;7.364;2023-05-07T10:02:30;18.10;99.90
4908;DHT22;64375;51.540;7.364;2023-05-07T10:05:01;18.10;99.90
4908;DHT22;64375;51.540;7.364;2023-05-07T10:07:30;18.20;99.90
4908;DHT22;64375;51.540;7.364;2023-05-07T10:09:59;18.30;99.90
4908;DHT22;64375;51.540;7.364;2023-05-07T10:12:28;18.40;99.90
4908;DHT22;64375;51.540;7.364;2023-05-07T10:14:59;18.30;99.90
4908;DHT22;64375;51.540;7.364;2023-05-07T10:17:34;18.40;99.90
4908;DHT22;64375;51.540;7.364;2023-05-07T10:20:05;18.50;99.90
4908;DHT22;64375;51.540;7.364;2023-05-07T10:22:45;18.50;99.90
4908;DHT22;64375;51.540;7.364;2023-05-07T10:25:16;18.60;99.90
4908;DHT22;64375;51.540;7.364;2023-05-07T10:27:52;18.80;99.90
4908;DHT22;64375;51.540;7.364;2023-05-07T10:30:32;18.90;99.90
4908;DHT22;64375;51.540;7.364;2023-05-07T10:33:05;18.80;99.90
4908;DHT22;64375;51.540;7.364;2023-05-07T10:35:39;18.90;99.90
4908;DHT22;64375;51.540;7.364;2023-05-07T10:38:08;18.90;99.90
4908;DHT22;64375;51.540;7.364;2023-05-07T10:40:39;19.00;99.90
4908;DHT22;64375;51.540;7.364;2023-05-07T10:43:14;19.10;99.90
4908;DHT22;64375;51.540;7.364;2023-05-07T10:45:42;19.10;99.90
4908;DHT22;64375;51.540;7.364;2023-05-07T10:48:12;19.10;99.90
4908;DHT22;64375;51.540;7.364;2023-05-07T10:51:27;19.10;99.90
4908;DHT22;64375;51.540;7.364;2023-05-07T10:54:25;19.20;99.90
4908;DHT22;64375;51.540;7.364;2023-05-07T10:56:53;19.30;99.90
4908;DHT22;64375;51.540;7.364;2023-05-07T10:59:35;19.50;99.90
4908;DHT22;64375;51.540;7.364;2023-05-07T11:02:11;19.50;99.90
4908;DHT22;64375;51.540;7.364;2023-05-07T11:04:41;19.40;99.90
4908;DHT22;64375;51.540;7.364;2023-05-07T11:07:35;19.40;99.90
4908;DHT22;64375;51.540;7.364;2023-05-07T11:10:21;19.50;99.90
4908;DHT22;64375;51.540;7.364;2023-05-07T11:12:51;19.60;99.90
4908;DHT22;64375;51.540;7.364;2023-05-07T11:15:39;19.60;99.90
4908;DHT22;64375;51.540;7.364;2023-05-07T11:18:15;19.70;99.90
4908;DHT22;64375;51.540;7.364;2023-05-07T11:23:56;19.60;99.90
4908;DHT22;64375;51.540;7.364;2023-05-07T11:26:26;19.60;99.90
4908;DHT22;64375;51.540;7.364;2023-05-07T11:28:55;19.70;99.90
4908;DHT22;64375;51.540;7.364;2023-05-07T11:31:29;19.70;99.90
4908;DHT22;64375;51.540;7.364;2023-05-07T11:33:58;19.70;99.90
4908;DHT22;64375;51.540;7.364;2023-05-07T11:36:35;19.70;99.90
4908;DHT22;64375;51.540;7.364;2023-05-07T11:39:04;19.60;99.90
4908;DHT22;64375;51.540;7.364;2023-05-07T11:41:41;19.60;99.90
4908;DHT22;64375;51.540;7.364;2023-05-07T11:44:09;19.70;99.90
4908;DHT22;64375;51.540;7.364;2023-05-07T11:46:37;19.60;99.90
4908;DHT22;64375;51.540;7.364;2023-05-07T11:49:10;19.60;99.90
4908;DHT22;64375;51.540;7.364;2023-05-07T11:51:39;19.50;99.90
4908;DHT22;64375;51.540;7.364;2023-05-07T11:54:08;19.60;99.70
4908;DHT22;64375;51.540;7.364;2023-05-07T11:56:38;19.50;99.90
4908;DHT22;64375;51.540;7.364;2023-05-07T11:59:06;19.60;99.90
4908;DHT22;64375;51.540;7.364;2023-05-07T12:01:35;19.60;99.90
4908;DHT22;64375;51.540;7.364;2023-05-07T12:04:03;19.60;99.90
4908;DHT22;64375;51.540;7.364;2023-05-07T12:06:36;19.60;99.90
4908;DHT22;64375;51.540;7.364;2023-05-07T12:09:05;19.70;99.80
4908;DHT22;64375;51.540;7.364;2023-05-07T12:11:39;19.60;99.50
4908;DHT22;64375;51.540;7.364;2023-05-07T12:14:07;19.70;99.90
4908;DHT22;64375;51.540;7.364;2023-05-07T12:16:40;19.70;99.00
4908;DHT22;64375;51.540;7.364;2023-05-07T12:19:11;19.80;99.10
4908;DHT22;64375;51.540;7.364;2023-05-07T12:21:41;19.80;99.30
4908;DHT22;64375;51.540;7.364;2023-05-07T12:24:09;19.90;99.80
4908;DHT22;64375;51.540;7.364;2023-05-07T12:26:39;20.00;99.50
4908;DHT22;64375;51.540;7.364;2023-05-07T12:29:10;20.00;99.70
4908;DHT22;64375;51.540;7.364;2023-05-07T12:31:40;19.90;98.30
4908;DHT22;64375;51.540;7.364;2023-05-07T12:34:10;19.90;98.50
4908;DHT22;64375;51.540;7.364;2023-05-07T12:36:46;19.90;97.80
4908;DHT22;64375;51.540;7.364;2023-05-07T12:39:19;19.90;97.90
4908;DHT22;64375;51.540;7.364;2023-05-07T12:41:54;19.90;98.40
4908;DHT22;64375;51.540;7.364;2023-05-07T12:44:23;19.90;98.10
4908;DHT22;64375;51.540;7.364;2023-05-07T12:46:52;19.90;98.80
4908;DHT22;64375;51.540;7.364;2023-05-07T12:49:21;19.90;98.80
4908;DHT22;64375;51.540;7.364;2023-05-07T12:51:51;20.00;98.90
4908;DHT22;64375;51.540;7.364;2023-05-07T12:54:28;20.00;97.70
4908;DHT22;64375;51.540;7.364;2023-05-07T12:57:05;20.00;98.40
4908;DHT22;64375;51.540;7.364;2023-05-07T12:59:38;20.10;98.50
4908;DHT22;64375;51.540;7.364;2023-05-07T13:02:07;20.10;98.10
4908;DHT22;64375;51.540;7.364;2023-05-07T13:04:38;20.10;97.80
4908;DHT22;64375;51.540;7.364;2023-05-07T13:07:09;20.00;97.40
4908;DHT22;64375;51.540;7.364;2023-05-07T13:09:37;20.10;97.40
4908;DHT22;64375;51.540;7.364;2023-05-07T13:12:09;20.10;97.70
4908;DHT22;64375;51.540;7.364;2023-05-07T13:14:40;20.10;97.40
4908;DHT22;64375;51.540;7.364;2023-05-07T13:17:07;20.10;97.50
4908;DHT22;64375;51.540;7.364;2023-05-07T13:19:35;20.10;96.80
4908;DHT22;64375;51.540;7.364;2023-05-07T13:22:07;20.10;97.50
4908;DHT22;64375;51.540;7.364;2023-05-07T13:24:40;20.10;97.10
4908;DHT22;64375;51.540;7.364;2023-05-07T13:27:11;20.10;97.50
4908;DHT22;64375;51.540;7.364;2023-05-07T13:29:39;20.20;97.60
4908;DHT22;64375;51.540;7.364;2023-05-07T13:32:24;20.20;97.50
4908;DHT22;64375;51.540;7.364;2023-05-07T13:35:02;20.20;98.10
4908;DHT22;64375;51.540;7.364;2023-05-07T13:37:30;20.20;98.30
4908;DHT22;64375;51.540;7.364;2023-05-07T13:40:01;20.20;98.40
4908;DHT22;64375;51.540;7.364;2023-05-07T13:42:33;20.20;98.40
4908;DHT22;64375;51.540;7.364;2023-05-07T13:45:01;20.20;98.70
4908;DHT22;64375;51.540;7.364;2023-05-07T13:47:31;20.10;98.50
4908;DHT22;64375;51.540;7.364;2023-05-07T13:49:59;20.10;98.80
4908;DHT22;64375;51.540;7.364;2023-05-07T13:52:27;20.10;99.30
4908;DHT22;64375;51.540;7.364;2023-05-07T13:54:55;20.20;98.80
4908;DHT22;64375;51.540;7.364;2023-05-07T13:57:25;20.20;98.90
4908;DHT22;64375;51.540;7.364;2023-05-07T13:59:57;20.30;99.30
4908;DHT22;64375;51.540;7.364;2023-05-07T14:02:25;20.30;99.10
4908;DHT22;64375;51.540;7.364;2023-05-07T14:04:53;20.30;98.80
4908;DHT22;64375;51.540;7.364;2023-05-07T14:07:23;20.30;98.90
4908;DHT22;64375;51.540;7.364;2023-05-07T14:09:51;20.20;99.30
4908;DHT22;64375;51.540;7.364;2023-05-07T14:12:18;20.20;98.90
4908;DHT22;64375;51.540;7.364;2023-05-07T14:14:52;20.10;99.10
4908;DHT22;64375;51.540;7.364;2023-05-07T14:17:24;20.10;99.00
4908;DHT22;64375;51.540;7.364;2023-05-07T14:19:57;20.30;99.40
4908;DHT22;64375;51.540;7.364;2023-05-07T14:22:28;20.30;99.20
4908;DHT22;64375;51.540;7.364;2023-05-07T14:24:56;20.30;99.40
4908;DHT22;64375;51.540;7.364;2023-05-07T14:27:35;20.40;99.40
4908;DHT22;64375;51.540;7.364;2023-05-07T14:30:04;20.40;99.50
4908;DHT22;64375;51.540;7.364;2023-05-07T14:32:34;20.30;99.40
4908;DHT22;64375;51.540;7.364;2023-05-07T14:35:08;20.30;99.60
4908;DHT22;64375;51.540;7.364;2023-05-07T14:37:43;20.40;99.50
4908;DHT22;64375;51.540;7.364;2023-05-07T14:40:11;20.40;99.00
4908;DHT22;64375;51.540;7.364;2023-05-07T14:42:40;20.40;99.00
4908;DHT22;64375;51.540;7.364;2023-05-07T14:45:14;20.50;98.80
4908;DHT22;64375;51.540;7.364;2023-05-07T14:47:43;20.60;98.80
4908;DHT22;64375;51.540;7.364;2023-05-07T14:50:11;20.70;98.40
4908;DHT22;64375;51.540;7.364;2023-05-07T14:52:39;20.70;98.20
4908;DHT22;64375;51.540;7.364;2023-05-07T14:55:10;20.70;97.30
4908;DHT22;64375;51.540;7.364;2023-05-07T14:57:45;20.70;97.60
4908;DHT22;64375;51.540;7.364;2023-05-07T15:00:13;20.60;97.70
4908;DHT22;64375;51.540;7.364;2023-05-07T15:02:49;20.60;98.00
4908;DHT22;64375;51.540;7.364;2023-05-07T15:05:26;20.50;98.10
4908;DHT22;64375;51.540;7.364;2023-05-07T15:07:56;20.50;97.90
4908;DHT22;64375;51.540;7.364;2023-05-07T15:10:27;20.40;98.20
4908;DHT22;64375;51.540;7.364;2023-05-07T15:13:01;20.30;98.60
4908;DHT22;64375;51.540;7.364;2023-05-07T15:15:29;20.30;98.80
4908;DHT22;64375;51.540;7.364;2023-05-07T15:18:01;20.30;98.60
4908;DHT22;64375;51.540;7.364;2023-05-07T15:20:29;20.40;99.00
4908;DHT22;64375;51.540;7.364;2023-05-07T15:23:03;20.40;98.50
4908;DHT22;64375;51.540;7.364;2023-05-07T15:25:32;20.50;99.40
4908;DHT22;64375;51.540;7.364;2023-05-07T15:28:09;20.40;98.70
4908;DHT22;64375;51.540;7.364;2023-05-07T15:30:38;20.40;98.90
4908;DHT22;64375;51.540;7.364;2023-05-07T15:33:07;20.40;99.00
4908;DHT22;64375;51.540;7.364;2023-05-07T15:35:35;20.30;99.00
4908;DHT22;64375;51.540;7.364;2023-05-07T15:38:06;20.30;99.30
4908;DHT22;64375;51.540;7.364;2023-05-07T15:40:35;20.30;99.30
4908;DHT22;64375;51.540;7.364;2023-05-07T15:43:08;20.30;99.50
4908;DHT22;64375;51.540;7.364;2023-05-07T15:45:42;20.20;99.40
4908;DHT22;64375;51.540;7.364;2023-05-07T15:48:12;20.30;99.60
4908;DHT22;64375;51.540;7.364;2023-05-07T15:50:40;20.40;99.90
4908;DHT22;64375;51.540;7.364;2023-05-07T15:53:08;20.60;99.90
4908;DHT22;64375;51.540;7.364;2023-05-07T15:55:36;20.90;99.50
4908;DHT22;64375;51.540;7.364;2023-05-07T15:58:04;21.10;99.70
4908;DHT22;64375;51.540;7.364;2023-05-07T16:00:32;21.00;99.00
4908;DHT22;64375;51.540;7.364;2023-05-07T16:03:27;21.00;99.20
4908;DHT22;64375;51.540;7.364;2023-05-07T16:05:58;21.10;99.10
4908;DHT22;64375;51.540;7.364;2023-05-07T16:08:27;21.30;98.90
4908;DHT22;64375;51.540;7.364;2023-05-07T16:10:55;21.50;98.00
4908;DHT22;64375;51.540;7.364;2023-05-07T16:13:23;21.50;98.00